Cypress, IL

7:38 PM CST on December 19, 2014 (GMT -0600)
Hidden River Farms | Change Station
CLOSE
Current Station
Personal Weather Station
Location: Buncombe, IL
Elevation: 466 ft
Nearby Weather Stations

Elev 466 ft 37.47 °N, 89.11 °W | Updated 5 seconds ago

Overcast
Overcast
35.6 °F
Feels Like 36 °F
N
0.9
Wind Variable Wind from NE
Gusts 3.0 mph

Today
High -- | Low -- °F
--% Chance of Precip.
Yesterday
High -- | Low -- °F
Precip. -- in
7:05 AM 4:40 PM
Waning Crescent, 5% visible
Pressure 30.25 in
Visibility 10.0 miles
Clouds Overcast 7000 ft
Windchill 36 °F
Dew Point 29 °F
Humidity 77%
Rainfall 0.01 in
Snow Depth Not available.
UV 0 out of 12
Pollen 1.10 out of 12
Air Quality Not available.
Flu Activity Not available.
METAR KM30 200115Z AUTO 05004KT 10SM OVC070 03/M01 A3025 RMK AO2 T00271010

More Conditions Fewer Conditions

Pressure 30.25 in
Visibility 10.0 miles
Clouds Overcast 7000 ft
Windchill 36 °F
Dew Point 29 °F
Humidity 77%
Rainfall 0.01 in
Snow Depth Not available.
UV 0 out of 12
Pollen 1.10 out of 12
Air Quality Not available.
Flu Activity Not available.
METAR KM30 200115Z AUTO 05004KT 10SM OVC070 03/M01 A3025 RMK AO2 T00271010

More Conditions Fewer Conditions

10-Day Weather Forecast

Almanac

Astronomy

Dec. 19, 2014 Rise Set
Actual Time
Civil Twilight
Nautical Twilight
Astronomical Twilight
Moon
Length of Visible Light
Length of Day
Tomorrow will be .
, % of the Moon is Illuminated

Today's Extremes

State Highs State Lows

Community

WunderPhotos

Upload Photos

1,779,099 photos uploaded!

WunderBlogs® & News

Nearby

Air Quality

  Air Quality AQ Index Pollutant
Not available.

Snow Depth

Station Depth Elevation

Earthquake Activity

City Distance Mag. Time & Date
Minimum magnitude displayed is 2.5.

Coastal Water Temperatures

Place Temperature

Nearby Weather Stations